createdAt,value
2016-11-23T14:56:09.486Z,55.04
2016-11-23T14:56:41.795Z,55.33
2016-11-23T14:57:14.108Z,55.13
2016-11-23T14:57:46.438Z,55.23
2016-11-23T14:58:18.763Z,55.13
2016-11-23T14:58:51.145Z,55.33
2016-11-23T14:59:23.453Z,55.04
2016-11-23T14:59:55.772Z,54.94
2016-11-23T15:00:28.095Z,55.33
2016-11-23T15:01:00.423Z,55.13
2016-11-23T15:01:32.756Z,55.43
2016-11-23T15:02:05.052Z,55.52
2016-11-23T15:02:38.210Z,55.71
2016-11-23T15:03:10.524Z,55.71
2016-11-23T15:03:42.828Z,55.43
2016-11-23T15:04:15.128Z,55.23
2016-11-23T15:04:47.449Z,55.23
2016-11-23T15:05:19.778Z,55.71
2016-11-23T15:05:52.387Z,55.71
2016-11-23T15:06:25.365Z,55.62
2016-11-23T15:06:57.707Z,55.3
2016-11-23T15:07:30.021Z,55.2
2016-11-23T15:08:02.343Z,55.4
2016-11-23T15:08:35.276Z,55.78
2016-11-23T15:09:07.714Z,55.3
2016-11-23T15:09:40.034Z,55.4
2016-11-23T15:10:12.333Z,55.4
2016-11-23T15:10:44.653Z,55.2
2016-11-23T15:11:17.210Z,55.2
2016-11-23T15:11:50.231Z,55.68
2016-11-23T15:12:23.347Z,55.3
2016-11-23T15:12:55.688Z,55.59
2016-11-23T15:13:28.014Z,55.3
2016-11-23T15:14:00.347Z,55.68
2016-11-23T15:14:33.216Z,55.59
2016-11-23T15:15:05.549Z,55.2
2016-11-23T15:15:37.894Z,55.3
2016-11-23T15:16:10.234Z,55.4
2016-11-23T15:16:42.529Z,55.2
2016-11-23T15:17:14.850Z,55.3
2016-11-23T15:17:47.205Z,55.49
2016-11-23T15:18:20.124Z,55.49
2016-11-23T15:18:52.436Z,55.4
2016-11-23T15:19:24.783Z,55.98
2016-11-23T15:19:58.330Z,55.4
2016-11-23T15:20:30.823Z,55.59
2016-11-23T15:21:03.142Z,55.78
2016-11-23T15:21:35.454Z,55.3
2016-11-23T15:22:07.763Z,55.88
2016-11-23T15:22:40.166Z,55.3
2016-11-23T15:23:13.146Z,55.59
2016-11-23T15:23:45.474Z,55.4
2016-11-23T15:24:17.899Z,55.59
2016-11-23T15:24:51.704Z,55.68
2016-11-23T15:25:24.012Z,55.59
2016-11-23T15:25:58.641Z,55.3
2016-11-23T15:26:30.938Z,55.4
2016-11-23T15:27:03.238Z,55.68
2016-11-23T15:27:35.554Z,55.49
2016-11-23T15:28:08.718Z,55.49
2016-11-23T15:28:41.046Z,55.3
2016-11-23T15:29:13.358Z,55.59
2016-11-23T15:29:45.699Z,55.78
2016-11-23T15:30:18.021Z,55.78
2016-11-23T15:30:50.373Z,55.98
2016-11-23T15:31:22.681Z,55.88
2016-11-23T15:31:55.009Z,55.85
2016-11-23T15:32:27.328Z,55.4
2016-11-23T15:32:59.645Z,55.59
2016-11-23T15:33:33.832Z,55.56
2016-11-23T15:34:11.754Z,55.59
2016-11-23T15:34:46.747Z,55.88
2016-11-23T15:35:19.739Z,55.76
2016-11-23T15:35:52.422Z,55.76
2016-11-23T15:36:24.742Z,55.85
2016-11-23T15:36:57.070Z,55.85
2016-11-23T15:37:29.411Z,55.76
2016-11-23T15:38:01.718Z,55.76
2016-11-23T15:38:35.813Z,55.66
2016-11-23T15:39:08.366Z,55.66
2016-11-23T15:39:40.699Z,55.66
2016-11-23T15:40:13.035Z,56.23
2016-11-23T15:40:45.358Z,55.94
2016-11-23T15:41:17.700Z,55.76
2016-11-23T15:41:50.021Z,55.66
2016-11-23T15:42:22.334Z,55.66
2016-11-23T15:42:54.660Z,55.66
2016-11-23T15:43:27.015Z,55.66
2016-11-23T15:43:59.328Z,55.76
2016-11-23T15:44:31.641Z,55.76
2016-11-23T15:45:03.945Z,55.94
2016-11-23T15:45:36.255Z,55.94
2016-11-23T15:46:08.572Z,55.94
2016-11-23T15:46:41.702Z,55.66
2016-11-23T15:47:14.024Z,55.46
2016-11-23T15:47:46.340Z,55.94
2016-11-23T15:48:18.656Z,55.66
2016-11-23T15:48:50.978Z,55.94
2016-11-23T15:49:23.292Z,55.94
2016-11-23T15:49:55.623Z,56.04
2016-11-23T15:50:27.943Z,56.04
2016-11-23T15:51:00.257Z,56.04
2016-11-23T15:51:32.627Z,56.04
2016-11-23T15:52:04.948Z,55.94
2016-11-23T15:52:37.269Z,56.04
2016-11-23T15:53:09.577Z,56.14
2016-11-23T15:53:41.892Z,56.52
2016-11-23T15:54:14.213Z,55.85
2016-11-23T15:54:46.547Z,56.23
2016-11-23T15:55:18.857Z,56.33
2016-11-23T15:55:51.169Z,56.33
2016-11-23T15:56:23.483Z,56.43
2016-11-23T15:56:55.797Z,56.33
2016-11-23T15:57:28.129Z,55.94
2016-11-23T15:58:00.482Z,56.04
2016-11-23T15:58:32.806Z,56.43
2016-11-23T15:59:05.162Z,56.43
2016-11-23T15:59:37.480Z,56.52
2016-11-23T16:00:09.807Z,56.33
2016-11-23T16:00:44.871Z,56.43
2016-11-23T16:01:20.190Z,56.52
2016-11-23T16:01:52.510Z,56.33
2016-11-23T16:02:24.839Z,56.43
2016-11-23T16:02:57.199Z,56.43
2016-11-23T16:03:29.522Z,56.33
2016-11-23T16:04:01.833Z,56.33
2016-11-23T16:04:34.167Z,56.43
2016-11-23T16:05:06.500Z,56.43
2016-11-23T16:05:38.832Z,56.43
2016-11-23T16:06:11.150Z,56.52
2016-11-23T16:06:43.502Z,56.71
2016-11-23T16:07:15.859Z,56.43
2016-11-23T16:07:48.190Z,56.43
2016-11-23T16:08:20.541Z,56.81
2016-11-23T16:08:52.872Z,56.81
2016-11-23T16:09:25.201Z,56.33
2016-11-23T16:09:57.505Z,56.33
2016-11-23T16:10:29.813Z,56.49
2016-11-23T16:11:02.133Z,56.33
2016-11-23T16:11:34.460Z,56.23
2016-11-23T16:12:06.781Z,56.81
2016-11-23T16:12:39.105Z,56.81
2016-11-23T16:13:11.433Z,56.3
2016-11-23T16:13:43.754Z,56.23
2016-11-23T16:14:16.061Z,56.11
2016-11-23T16:14:48.374Z,56.62
2016-11-23T16:15:20.685Z,56.68
2016-11-23T16:15:53.017Z,56.33
2016-11-23T16:16:25.354Z,56.43
2016-11-23T16:16:57.662Z,56.14
2016-11-23T16:17:29.984Z,56.11
2016-11-23T16:18:02.317Z,56.49
2016-11-23T16:18:34.625Z,56.71
2016-11-23T16:19:06.940Z,56.62
2016-11-23T16:19:39.262Z,56.3
2016-11-23T16:20:11.595Z,56.21
2016-11-23T16:20:43.904Z,56.14
2016-11-23T16:21:16.224Z,56.59
2016-11-23T16:21:48.546Z,56.52
2016-11-23T16:22:20.883Z,56.3
2016-11-23T16:22:54.218Z,56.21
2016-11-23T16:23:26.553Z,56.3
2016-11-23T16:23:58.873Z,56.21
2016-11-23T16:24:31.215Z,56.59
2016-11-23T16:25:03.547Z,56.3
2016-11-23T16:25:35.860Z,56.11
2016-11-23T16:26:08.194Z,56.11
2016-11-23T16:26:40.511Z,56.3
2016-11-23T16:27:12.834Z,56.11
2016-11-23T16:27:45.161Z,56.11
2016-11-23T16:28:17.504Z,55.82
2016-11-23T16:28:49.818Z,56.3
2016-11-23T16:29:22.137Z,55.91
2016-11-23T16:29:54.435Z,56.43
2016-11-23T16:30:26.748Z,56.11
2016-11-23T16:30:59.063Z,55.91
2016-11-23T16:31:31.413Z,56.21
2016-11-23T16:32:03.728Z,55.91
2016-11-23T16:32:36.052Z,56.3
2016-11-23T16:33:08.389Z,55.91
2016-11-23T16:33:40.714Z,56.21
2016-11-23T16:34:13.044Z,55.91
2016-11-23T16:34:45.362Z,56.3
2016-11-23T16:35:17.676Z,55.91
2016-11-23T16:35:50.010Z,56.21
2016-11-23T16:36:22.322Z,56.21
2016-11-23T16:36:54.647Z,56.3
2016-11-23T16:37:26.960Z,56.21
2016-11-23T16:37:59.288Z,56.11
2016-11-23T16:38:31.612Z,56.21
2016-11-23T16:39:03.963Z,56.3
2016-11-23T16:39:36.266Z,56.01
2016-11-23T16:40:08.602Z,56.3
2016-11-23T16:40:40.947Z,56.3
2016-11-23T16:41:13.267Z,55.91
2016-11-23T16:41:45.587Z,56.01
2016-11-23T16:42:17.912Z,56.01
2016-11-23T16:42:50.242Z,56.11
2016-11-23T16:43:22.567Z,56.3
2016-11-23T16:43:54.891Z,56.3
2016-11-23T16:44:27.254Z,55.91
2016-11-23T16:44:59.571Z,56.11
2016-11-23T16:45:31.893Z,56.11
2016-11-23T16:46:04.216Z,56.3
2016-11-23T16:46:36.536Z,56.3
2016-11-23T16:47:08.855Z,56.21
2016-11-23T16:47:41.194Z,56.3
2016-11-23T16:48:13.516Z,56.21
2016-11-23T16:48:45.835Z,56.11
2016-11-23T16:49:18.155Z,56.21
2016-11-23T16:49:50.475Z,56.3
2016-11-23T16:50:22.793Z,56.01
2016-11-23T16:50:55.111Z,56.01
2016-11-23T16:51:27.435Z,56.01
2016-11-23T16:51:59.758Z,56.4
2016-11-23T16:52:32.113Z,56.11
2016-11-23T16:53:04.436Z,56.11
2016-11-23T16:53:36.754Z,56.4
2016-11-23T16:54:09.073Z,56.21
2016-11-23T16:54:41.386Z,56.01
2016-11-23T16:55:13.707Z,55.91
2016-11-23T16:55:46.031Z,56.3
2016-11-23T16:56:18.333Z,56.11
2016-11-23T16:56:50.649Z,56.21
2016-11-23T16:57:22.960Z,56.01
2016-11-23T16:57:55.283Z,56.11
2016-11-23T16:58:27.596Z,56.49
2016-11-23T16:58:59.908Z,56.3
2016-11-23T16:59:32.238Z,56.11
2016-11-23T17:00:04.551Z,56.49
2016-11-23T17:00:36.848Z,56.3
2016-11-23T17:01:09.178Z,56.3
2016-11-23T17:01:41.494Z,56.4
2016-11-23T17:02:13.819Z,56.21
2016-11-23T17:02:46.124Z,56.4
2016-11-23T17:03:18.446Z,56.59
2016-11-23T17:03:50.764Z,56.21
2016-11-23T17:04:23.084Z,56.3
2016-11-23T17:04:55.392Z,56.49
2016-11-23T17:05:27.719Z,56.3
2016-11-23T17:06:00.038Z,56.21
2016-11-23T17:06:32.353Z,56.3
2016-11-23T17:07:04.681Z,56.4
2016-11-23T17:07:37.011Z,56.3
2016-11-23T17:08:09.312Z,56.3
2016-11-23T17:08:41.610Z,56.21
2016-11-23T17:09:13.942Z,56.21
2016-11-23T17:09:46.240Z,56.21
2016-11-23T17:10:18.553Z,56.18
2016-11-23T17:10:50.863Z,56.18
2016-11-23T17:11:23.184Z,56.3
2016-11-23T17:11:55.512Z,56.46
2016-11-23T17:12:27.863Z,56.27
2016-11-23T17:13:00.171Z,56.21
2016-11-23T17:13:32.536Z,56.18
2016-11-23T17:14:04.851Z,56.3
2016-11-23T17:14:37.158Z,56.46
2016-11-23T17:15:09.467Z,56.37
2016-11-23T17:15:41.787Z,56.18
2016-11-23T17:16:14.109Z,56.37
2016-11-23T17:16:46.424Z,56.3
2016-11-23T17:17:18.762Z,56.37
2016-11-23T17:17:51.078Z,56.27
2016-11-23T17:18:23.387Z,56.37
2016-11-23T17:18:55.715Z,56.37
2016-11-23T17:19:28.025Z,56.18
2016-11-23T17:20:00.327Z,56.27
2016-11-23T17:20:32.649Z,56.37
2016-11-23T17:21:04.968Z,56.27
2016-11-23T17:21:37.297Z,56.4
2016-11-23T17:22:09.615Z,56.18
2016-11-23T17:22:41.935Z,56.37
2016-11-23T17:23:14.253Z,56.27
2016-11-23T17:23:46.576Z,56.37
2016-11-23T17:24:18.911Z,56.46
2016-11-23T17:24:51.223Z,56.27
2016-11-23T17:25:23.536Z,56.27
2016-11-23T17:25:55.898Z,56.18
2016-11-23T17:26:28.244Z,56.27
2016-11-23T17:27:00.580Z,56.37
2016-11-23T17:27:32.939Z,56.66
2016-11-23T17:28:05.257Z,56.27
2016-11-23T17:28:37.575Z,56.27
2016-11-23T17:29:09.895Z,56.27
2016-11-23T17:29:42.247Z,56.66
2016-11-23T17:30:14.551Z,56.46
2016-11-23T17:30:46.871Z,56.37
2016-11-23T17:31:19.190Z,56.56
2016-11-23T17:31:51.502Z,56.37
2016-11-23T17:32:23.818Z,56.27
2016-11-23T17:32:56.151Z,56.66
2016-11-23T17:33:28.505Z,56.27
2016-11-23T17:34:00.820Z,56.18
2016-11-23T17:34:33.141Z,56.27
2016-11-23T17:35:05.451Z,56.56
2016-11-23T17:35:37.771Z,56.56
2016-11-23T17:36:10.745Z,56.56
2016-11-23T17:36:43.069Z,56.56
2016-11-23T17:37:15.401Z,56.56
2016-11-23T17:37:47.848Z,56.66
2016-11-23T17:38:20.138Z,56.27
2016-11-23T17:38:52.458Z,56.27
2016-11-23T17:39:24.781Z,56.46
2016-11-23T17:39:57.107Z,56.56
2016-11-23T17:40:29.445Z,56.66
2016-11-23T17:41:01.771Z,56.56
2016-11-23T17:41:34.086Z,56.66
2016-11-23T17:42:06.393Z,56.27
2016-11-23T17:42:38.698Z,56.56
2016-11-23T17:43:11.011Z,56.56
2016-11-23T17:43:43.339Z,56.56
2016-11-23T17:44:16.874Z,56.46
2016-11-23T17:44:49.206Z,56.66
2016-11-23T17:45:21.517Z,56.66
2016-11-23T17:45:53.841Z,56.56
2016-11-23T17:46:26.169Z,56.66
2016-11-23T17:46:58.531Z,56.46
2016-11-23T17:47:30.854Z,56.66
2016-11-23T17:48:03.181Z,56.56
2016-11-23T17:48:35.512Z,56.46
2016-11-23T17:49:07.830Z,56.56
2016-11-23T17:49:40.153Z,56.37
2016-11-23T17:50:12.504Z,56.46
2016-11-23T17:50:44.810Z,56.37
2016-11-23T17:51:17.122Z,56.46
2016-11-23T17:51:49.426Z,56.46
2016-11-23T17:52:21.748Z,56.56
2016-11-23T17:52:54.071Z,56.56
2016-11-23T17:53:26.396Z,56.56
2016-11-23T17:53:58.728Z,56.46
2016-11-23T17:54:31.092Z,56.37
2016-11-23T17:55:03.419Z,56.46
2016-11-23T17:55:35.741Z,56.37
2016-11-23T17:56:08.046Z,56.46
2016-11-23T17:56:40.375Z,56.56
2016-11-23T17:57:12.695Z,56.46
2016-11-23T17:57:45.008Z,56.46
2016-11-23T17:58:17.337Z,56.37
2016-11-23T17:58:49.659Z,56.56
2016-11-23T17:59:21.970Z,56.56
2016-11-23T17:59:54.301Z,56.46
2016-11-23T18:00:26.598Z,56.37
2016-11-23T18:00:59.024Z,56.46
2016-11-23T18:01:31.383Z,56.46
2016-11-23T18:02:03.689Z,56.46
2016-11-23T18:02:36.011Z,56.46
2016-11-23T18:03:08.365Z,56.37
2016-11-23T18:03:40.684Z,56.37
2016-11-23T18:04:13.005Z,56.46
2016-11-23T18:04:45.325Z,56.46
2016-11-23T18:05:17.646Z,56.66
2016-11-23T18:05:49.959Z,56.46
2016-11-23T18:06:22.306Z,56.46
2016-11-23T18:06:54.612Z,56.56
2016-11-23T18:07:26.929Z,56.37
2016-11-23T18:07:59.244Z,56.46
2016-11-23T18:08:31.595Z,56.46
2016-11-23T18:09:03.989Z,56.56
2016-11-23T18:09:36.306Z,56.56
2016-11-23T18:10:08.639Z,56.56
2016-11-23T18:10:40.974Z,56.46
2016-11-23T18:11:13.289Z,56.53
2016-11-23T18:11:45.604Z,56.46
2016-11-23T18:12:17.932Z,56.46
2016-11-23T18:12:50.256Z,56.46
2016-11-23T18:13:22.603Z,56.46
2016-11-23T18:13:54.921Z,56.56
2016-11-23T18:14:27.237Z,56.34
2016-11-23T18:14:59.557Z,56.37
2016-11-23T18:15:31.889Z,56.37
2016-11-23T18:16:04.216Z,56.46
2016-11-23T18:16:36.548Z,56.46
2016-11-23T18:17:08.863Z,56.56
2016-11-23T18:17:41.181Z,56.66
2016-11-23T18:18:13.515Z,56.37
2016-11-23T18:18:45.828Z,56.63
2016-11-23T18:19:18.635Z,56.46
2016-11-23T18:19:50.982Z,56.56
2016-11-23T18:20:23.304Z,56.66
2016-11-23T18:20:55.616Z,56.63
2016-11-23T18:21:27.936Z,56.46
2016-11-23T18:22:00.241Z,56.37
2016-11-23T18:22:32.902Z,56.66
2016-11-23T18:23:05.214Z,56.46
2016-11-23T18:23:37.526Z,56.56
2016-11-23T18:24:09.858Z,56.53
2016-11-23T18:24:42.192Z,56.56
2016-11-23T18:25:14.513Z,56.44
2016-11-23T18:25:46.804Z,56.53
2016-11-23T18:26:19.109Z,56.53
2016-11-23T18:26:51.430Z,56.53
2016-11-23T18:27:23.782Z,56.56
2016-11-23T18:27:56.092Z,56.56
2016-11-23T18:28:28.405Z,56.56
2016-11-23T18:29:03.942Z,56.63
2016-11-23T18:29:44.356Z,56.53
2016-11-23T18:30:21.041Z,56.34
2016-11-23T18:30:53.366Z,56.63
2016-11-23T18:31:26.269Z,56.63
2016-11-23T18:31:58.599Z,56.53
2016-11-23T18:32:30.913Z,56.66
2016-11-23T18:33:03.227Z,56.53
2016-11-23T18:33:35.966Z,56.34
2016-11-23T18:34:08.290Z,56.44
2016-11-23T18:34:40.623Z,56.63
2016-11-23T18:35:12.943Z,56.53
2016-11-23T18:35:45.295Z,56.53
2016-11-23T18:36:17.612Z,56.56
2016-11-23T18:36:49.925Z,56.66
2016-11-23T18:37:22.255Z,56.53
2016-11-23T18:37:54.622Z,56.63
2016-11-23T18:38:26.943Z,56.53
2016-11-23T18:38:59.274Z,56.53
2016-11-23T18:39:31.597Z,56.46
2016-11-23T18:40:03.894Z,56.63
2016-11-23T18:40:36.218Z,56.53
2016-11-23T18:41:08.558Z,56.53
2016-11-23T18:41:40.885Z,56.53
2016-11-23T18:42:13.188Z,56.63
2016-11-23T18:42:45.508Z,56.34
2016-11-23T18:43:19.885Z,56.63
2016-11-23T18:43:52.201Z,56.63
2016-11-23T18:44:24.705Z,56.53
2016-11-23T18:44:57.028Z,56.53
2016-11-23T18:45:29.339Z,56.53
2016-11-23T18:46:01.657Z,56.44
2016-11-23T18:46:36.231Z,56.53
2016-11-23T18:47:08.617Z,56.44
2016-11-23T18:47:40.935Z,56.53
2016-11-23T18:48:13.270Z,56.53
2016-11-23T18:48:45.607Z,56.63
2016-11-23T18:49:17.919Z,56.63
2016-11-23T18:49:50.246Z,56.63
2016-11-23T18:50:22.561Z,56.63
2016-11-23T18:50:54.875Z,56.34
2016-11-23T18:51:27.193Z,56.44
2016-11-23T18:51:59.510Z,56.53
2016-11-23T18:52:31.833Z,56.53
2016-11-23T18:53:04.150Z,56.63
2016-11-23T18:53:36.452Z,56.63
2016-11-23T18:54:08.768Z,56.53
2016-11-23T18:54:41.098Z,56.44
2016-11-23T18:55:13.414Z,56.44
2016-11-23T18:55:45.775Z,56.63
2016-11-23T18:56:18.092Z,56.63
2016-11-23T18:56:50.419Z,56.44
2016-11-23T18:57:22.729Z,56.63
2016-11-23T18:57:55.055Z,56.63
2016-11-23T18:58:27.375Z,56.53
2016-11-23T18:58:59.743Z,56.63
2016-11-23T18:59:32.069Z,56.63
2016-11-23T19:00:04.426Z,56.63
2016-11-23T19:00:36.752Z,56.73
2016-11-23T19:01:09.086Z,56.63
2016-11-23T19:01:41.396Z,56.73
2016-11-23T19:02:13.743Z,56.44
2016-11-23T19:02:46.077Z,56.82
2016-11-23T19:03:18.411Z,56.82
2016-11-23T19:03:50.734Z,56.63
2016-11-23T19:04:23.074Z,56.34
2016-11-23T19:04:55.385Z,56.44
2016-11-23T19:05:27.703Z,56.63
2016-11-23T19:06:00.022Z,56.44
2016-11-23T19:06:32.337Z,56.73
2016-11-23T19:07:04.670Z,56.63
2016-11-23T19:07:36.985Z,56.53
2016-11-23T19:08:09.292Z,56.63
2016-11-23T19:08:41.612Z,56.63
2016-11-23T19:09:13.930Z,56.44
2016-11-23T19:09:46.257Z,56.53
2016-11-23T19:10:18.566Z,56.24
2016-11-23T19:10:50.873Z,56.53
2016-11-23T19:11:23.185Z,56.73
2016-11-23T19:11:55.503Z,56.63
2016-11-23T19:12:27.828Z,56.63
2016-11-23T19:13:00.159Z,56.92
2016-11-23T19:13:32.481Z,56.73
2016-11-23T19:14:04.805Z,56.73
2016-11-23T19:14:37.137Z,56.53
2016-11-23T19:15:09.455Z,56.63
2016-11-23T19:15:41.814Z,56.63
2016-11-23T19:16:14.146Z,56.73
2016-11-23T19:16:46.468Z,56.34
2016-11-23T19:17:18.789Z,56.44
2016-11-23T19:17:51.112Z,56.63
2016-11-23T19:18:23.427Z,56.63
2016-11-23T19:18:55.745Z,56.24
2016-11-23T19:19:28.072Z,56.24
2016-11-23T19:20:00.435Z,56.24
2016-11-23T19:20:32.775Z,56.24
2016-11-23T19:21:05.101Z,56.63
2016-11-23T19:21:38.356Z,56.63
2016-11-23T19:22:10.673Z,56.24
2016-11-23T19:22:42.995Z,56.63
2016-11-23T19:23:15.330Z,56.53
2016-11-23T19:23:47.659Z,56.53
2016-11-23T19:24:19.969Z,56.53
2016-11-23T19:24:52.285Z,56.44
2016-11-23T19:25:24.603Z,56.53
2016-11-23T19:25:56.926Z,56.73
2016-11-23T19:26:29.231Z,56.24
2016-11-23T19:27:01.541Z,56.53
2016-11-23T19:27:33.867Z,56.63
2016-11-23T19:28:06.206Z,56.63
2016-11-23T19:28:38.521Z,56.63
2016-11-23T19:29:10.838Z,56.44
2016-11-23T19:29:43.199Z,56.44
2016-11-23T19:30:15.511Z,56.44
2016-11-23T19:30:47.825Z,56.24
2016-11-23T19:31:20.117Z,56.24
2016-11-23T19:31:52.459Z,56.53
2016-11-23T19:32:24.793Z,56.73
2016-11-23T19:32:57.112Z,56.44
2016-11-23T19:33:29.437Z,56.44
2016-11-23T19:34:01.856Z,56.34
2016-11-23T19:34:34.166Z,56.53
2016-11-23T19:35:06.500Z,56.44
2016-11-23T19:35:38.836Z,56.44
2016-11-23T19:36:11.151Z,56.63
2016-11-23T19:36:43.492Z,56.53
2016-11-23T19:37:15.806Z,56.44
2016-11-23T19:37:48.113Z,56.63
2016-11-23T19:38:20.416Z,56.34
2016-11-23T19:38:53.797Z,56.44
2016-11-23T19:39:26.120Z,56.24
2016-11-23T19:39:58.451Z,56.44
2016-11-23T19:40:30.772Z,56.44
2016-11-23T19:41:03.100Z,56.73
2016-11-23T19:41:35.413Z,56.63
2016-11-23T19:42:07.718Z,56.24
2016-11-23T19:42:40.023Z,56.63
2016-11-23T19:43:12.343Z,56.24
2016-11-23T19:43:44.678Z,56.24
2016-11-23T19:44:17.009Z,56.53
2016-11-23T19:44:49.344Z,56.63
2016-11-23T19:45:21.662Z,56.34
2016-11-23T19:45:53.992Z,56.53
2016-11-23T19:46:26.315Z,56.63
2016-11-23T19:46:58.641Z,56.34
2016-11-23T19:47:30.968Z,56.73
2016-11-23T19:48:03.314Z,56.63
2016-11-23T19:48:35.644Z,56.73
2016-11-23T19:49:07.962Z,56.63
2016-11-23T19:49:40.279Z,56.24
2016-11-23T19:50:12.591Z,56.34
2016-11-23T19:50:44.958Z,56.24
2016-11-23T19:51:17.265Z,56.63
2016-11-23T19:51:49.609Z,56.24
2016-11-23T19:52:21.934Z,56.53
2016-11-23T19:52:54.249Z,56.63
2016-11-23T19:53:26.570Z,56.92
2016-11-23T19:53:58.928Z,56.34
2016-11-23T19:54:31.247Z,56.53
2016-11-23T19:55:03.567Z,56.73
2016-11-23T19:55:35.866Z,56.44
2016-11-23T19:56:08.211Z,56.63
2016-11-23T19:56:40.539Z,56.63
2016-11-23T19:57:12.847Z,56.73
2016-11-23T19:57:45.158Z,56.63
2016-11-23T19:58:17.465Z,56.73
2016-11-23T19:58:49.787Z,56.63
2016-11-23T19:59:22.105Z,56.53
2016-11-23T19:59:54.414Z,56.63
2016-11-23T20:00:26.759Z,56.63
2016-11-23T20:00:59.056Z,56.63
2016-11-23T20:01:31.365Z,56.24
2016-11-23T20:02:03.687Z,56.73
2016-11-23T20:02:36.012Z,56.73
2016-11-23T20:03:08.329Z,56.73
2016-11-23T20:03:40.655Z,56.63
2016-11-23T20:04:12.992Z,56.63
2016-11-23T20:04:45.304Z,56.44
2016-11-23T20:05:17.620Z,56.34
2016-11-23T20:05:49.932Z,56.44
2016-11-23T20:06:22.258Z,56.73
2016-11-23T20:06:54.580Z,56.73
2016-11-23T20:07:26.899Z,56.53
2016-11-23T20:07:59.211Z,56.73
2016-11-23T20:08:31.540Z,56.53
2016-11-23T20:09:03.876Z,56.53
2016-11-23T20:09:36.202Z,56.24
2016-11-23T20:10:08.518Z,56.73
2016-11-23T20:10:40.832Z,56.73
2016-11-23T20:11:13.144Z,56.82
2016-11-23T20:11:45.445Z,56.44
2016-11-23T20:12:17.821Z,56.73
2016-11-23T20:12:50.145Z,56.73
2016-11-23T20:13:22.488Z,56.73
2016-11-23T20:13:54.863Z,56.63
2016-11-23T20:14:27.211Z,56.63
2016-11-23T20:14:59.559Z,56.73
2016-11-23T20:15:32.012Z,56.73
2016-11-23T20:16:04.365Z,56.73
2016-11-23T20:16:36.734Z,56.82
2016-11-23T20:17:09.095Z,56.53
2016-11-23T20:17:41.442Z,56.63
2016-11-23T20:18:13.746Z,56.73
2016-11-23T20:18:46.083Z,56.73
2016-11-23T20:19:18.470Z,56.63
2016-11-23T20:19:50.867Z,56.34
2016-11-23T20:20:23.206Z,56.73
2016-11-23T20:20:55.568Z,56.34
2016-11-23T20:21:27.911Z,56.73
2016-11-23T20:22:00.249Z,56.82
2016-11-23T20:22:32.594Z,56.44
2016-11-23T20:23:04.910Z,56.73
2016-11-23T20:23:37.280Z,56.73
2016-11-23T20:24:09.655Z,56.53
2016-11-23T20:24:42.020Z,56.53
2016-11-23T20:25:14.392Z,56.73
2016-11-23T20:25:46.715Z,56.63
2016-11-23T20:26:19.053Z,56.73
2016-11-23T20:26:51.386Z,56.63
2016-11-23T20:27:23.730Z,56.34
2016-11-23T20:27:56.066Z,56.53
2016-11-23T20:28:28.398Z,56.63
2016-11-23T20:29:00.746Z,56.82
2016-11-23T20:29:33.092Z,56.53
2016-11-23T20:30:05.433Z,56.73
2016-11-23T20:30:37.778Z,56.63
2016-11-23T20:31:10.092Z,56.44
2016-11-23T20:31:42.439Z,56.63
2016-11-23T20:32:14.788Z,56.73
2016-11-23T20:32:47.111Z,56.34
2016-11-23T20:33:19.433Z,56.73
2016-11-23T20:33:51.761Z,56.73
2016-11-23T20:34:24.179Z,56.73
2016-11-23T20:34:56.502Z,56.34
2016-11-23T20:35:28.820Z,56.73
2016-11-23T20:36:01.146Z,56.63
2016-11-23T20:36:33.469Z,56.34
2016-11-23T20:37:05.840Z,56.53
2016-11-23T20:37:38.294Z,56.53
2016-11-23T20:38:10.640Z,56.53
2016-11-23T20:38:43.375Z,56.63
2016-11-23T20:39:16.094Z,56.63
2016-11-23T20:39:48.424Z,56.63
2016-11-23T20:40:20.747Z,56.7
2016-11-23T20:40:53.092Z,56.63
2016-11-23T20:41:25.402Z,56.7
2016-11-23T20:41:57.732Z,56.31
2016-11-23T20:42:30.031Z,56.73
2016-11-23T20:43:02.385Z,56.7
2016-11-23T20:43:35.840Z,56.7
2016-11-23T20:44:08.142Z,56.7
2016-11-23T20:44:40.460Z,56.31
2016-11-23T20:45:12.789Z,56.63
2016-11-23T20:45:45.118Z,56.89
2016-11-23T20:46:17.446Z,56.7
2016-11-23T20:46:49.785Z,56.73
2016-11-23T20:47:22.112Z,56.31
2016-11-23T20:47:54.418Z,56.7
2016-11-23T20:48:26.742Z,56.7
2016-11-23T20:48:59.076Z,56.51
2016-11-23T20:49:31.439Z,56.6
2016-11-23T20:50:03.931Z,56.51
2016-11-23T20:50:36.268Z,56.6
2016-11-23T20:51:08.603Z,56.7
2016-11-23T20:51:40.926Z,56.7
2016-11-23T20:52:13.287Z,56.53
2016-11-23T20:52:45.624Z,56.41
2016-11-23T20:53:17.992Z,56.31
2016-11-23T20:53:50.318Z,56.7
2016-11-23T20:54:22.651Z,56.7
2016-11-23T20:54:54.984Z,56.41
2016-11-23T20:55:27.330Z,56.7
2016-11-23T20:55:59.664Z,56.7
2016-11-23T20:56:31.989Z,56.6
2016-11-23T20:57:04.339Z,56.7
2016-11-23T20:57:36.734Z,56.51
2016-11-23T20:58:09.058Z,56.6
2016-11-23T20:58:41.423Z,56.7
2016-11-23T20:59:13.753Z,56.6
2016-11-23T20:59:46.094Z,56.63
2016-11-23T21:00:18.425Z,56.6
2016-11-23T21:00:50.761Z,56.22
2016-11-23T21:01:23.095Z,56.7
2016-11-23T21:01:55.432Z,56.6
2016-11-23T21:02:27.769Z,56.73
2016-11-23T21:03:00.116Z,56.7
2016-11-23T21:03:32.433Z,56.51
2016-11-23T21:04:04.808Z,56.51
2016-11-23T21:04:37.165Z,56.63
2016-11-23T21:05:09.484Z,56.22
2016-11-23T21:05:41.825Z,56.31
2016-11-23T21:06:14.178Z,56.31
2016-11-23T21:06:46.511Z,56.7
2016-11-23T21:07:18.848Z,56.7
2016-11-23T21:07:51.194Z,56.6
2016-11-23T21:08:23.512Z,56.7
2016-11-23T21:08:55.826Z,56.22
2016-11-23T21:09:28.145Z,56.7
2016-11-23T21:10:00.484Z,56.31
2016-11-23T21:10:32.821Z,56.7
2016-11-23T21:11:05.150Z,56.6
2016-11-23T21:11:37.475Z,56.7
2016-11-23T21:12:09.796Z,56.6
2016-11-23T21:12:42.121Z,56.31
2016-11-23T21:13:14.435Z,56.6
2016-11-23T21:13:46.741Z,56.7
2016-11-23T21:14:19.055Z,56.6
2016-11-23T21:14:51.364Z,56.22
2016-11-23T21:15:23.697Z,56.22
2016-11-23T21:15:55.995Z,56.41
2016-11-23T21:16:28.319Z,56.6
2016-11-23T21:17:00.634Z,56.6
2016-11-23T21:17:32.958Z,56.31
2016-11-23T21:18:05.269Z,56.7
2016-11-23T21:18:37.578Z,56.51
2016-11-23T21:19:09.918Z,56.7
2016-11-23T21:19:42.244Z,56.7
2016-11-23T21:20:14.567Z,56.41
2016-11-23T21:20:46.891Z,56.6
2016-11-23T21:21:19.204Z,56.6
2016-11-23T21:21:51.509Z,56.6
2016-11-23T21:22:23.835Z,56.6
2016-11-23T21:22:56.152Z,56.41
2016-11-23T21:23:28.467Z,56.22
2016-11-23T21:24:00.799Z,56.22
2016-11-23T21:24:33.134Z,56.6
2016-11-23T21:25:05.451Z,56.41
2016-11-23T21:25:37.756Z,56.22
2016-11-23T21:26:10.089Z,56.22
2016-11-23T21:26:42.401Z,56.6
2016-11-23T21:27:14.718Z,56.6
2016-11-23T21:27:47.042Z,56.6
2016-11-23T21:28:19.373Z,56.51
2016-11-23T21:28:51.684Z,56.7
2016-11-23T21:29:23.991Z,56.6
2016-11-23T21:29:56.286Z,56.79
2016-11-23T21:30:28.584Z,56.51
2016-11-23T21:31:00.901Z,56.51
2016-11-23T21:31:33.217Z,56.22
2016-11-23T21:32:05.535Z,56.6
2016-11-23T21:32:37.849Z,56.6
2016-11-23T21:33:10.205Z,56.79
2016-11-23T21:33:42.529Z,56.6
2016-11-23T21:34:14.842Z,56.31
2016-11-23T21:34:47.162Z,56.51
2016-11-23T21:35:19.474Z,56.6
2016-11-23T21:35:51.813Z,56.7
2016-11-23T21:36:24.141Z,56.6
2016-11-23T21:36:56.457Z,56.41
2016-11-23T21:37:28.778Z,56.51
2016-11-23T21:38:01.106Z,56.6
2016-11-23T21:38:33.420Z,56.7
2016-11-23T21:39:05.736Z,56.7
2016-11-23T21:39:38.043Z,56.7
2016-11-23T21:40:10.371Z,56.6
2016-11-23T21:40:42.707Z,56.31
2016-11-23T21:41:15.032Z,56.51
2016-11-23T21:41:47.350Z,56.6
2016-11-23T21:42:19.675Z,56.79
2016-11-23T21:42:51.995Z,56.51
2016-11-23T21:43:24.301Z,56.6
2016-11-23T21:43:56.620Z,56.41
2016-11-23T21:44:28.932Z,56.51
2016-11-23T21:45:01.242Z,56.6
2016-11-23T21:45:33.565Z,56.6
2016-11-23T21:46:05.886Z,56.7
2016-11-23T21:46:38.266Z,56.6
2016-11-23T21:47:10.599Z,56.51
2016-11-23T21:47:42.912Z,56.31
2016-11-23T21:48:15.242Z,56.51
2016-11-23T21:48:47.602Z,56.6
2016-11-23T21:49:19.926Z,56.41
2016-11-23T21:49:52.250Z,56.6
2016-11-23T21:50:24.570Z,56.41
2016-11-23T21:50:56.898Z,56.51
2016-11-23T21:51:29.200Z,56.6
2016-11-23T21:52:01.515Z,56.7
2016-11-23T21:52:33.848Z,56.7
2016-11-23T21:53:06.138Z,56.51
2016-11-23T21:53:38.451Z,56.6
2016-11-23T21:54:10.764Z,56.41
2016-11-23T21:54:43.087Z,56.6
2016-11-23T21:55:15.417Z,56.79
2016-11-23T21:55:47.739Z,56.6